High Priority — A8NZ7 — position and weather

sailwx.info

Track history (hours):
 
Tides and Currents Weather Stations Pressure Air Temp Water Temp Dewpoint Dewpoint Depression Visibility Wind Speed Wind Dir Waves Ship Positions

High Priority

Last reported at 2015-Feb-09 18:30 UTC. Time now 2015-Mar-31 22:03 UTC.
Position N 01°10' E 103°47'.
Warning: this ship's position is 50 days out of date.

Length 180 m; draft 7 m.

Type: Tanker. MMSI: 636013591.

Date/timePositionNaut miles runAvg speedWind from/ knotsBaromVisibWave heightAir tempDewpointWater temp
2015-Feb-09 18:30N 01°10' E 103°47'4 1.6
2015-Feb-09 16:15N 01°13' E 103°49'0 0.1
2015-Feb-09 15:33N 01°13' E 103°49'7 7.0
2015-Feb-09 14:32N 01°16' E 103°56'1 0.1
2015-Feb-09 05:30N 01°16' E 103°54'0 0.0
2015-Feb-09 04:21N 01°16' E 103°54'0 0.0
2015-Feb-09 03:33N 01°16' E 103°54'0 0.0
2015-Feb-09 02:33N 01°16' E 103°54'0 0.0
2015-Feb-09 01:33N 01°16' E 103°54'0 0.0
2015-Feb-09 00:18N 01°16' E 103°54'0 0.0
2015-Feb-08 23:21N 01°16' E 103°54'0 0.0
2015-Feb-08 22:21N 01°16' E 103°54'0 0.0
2015-Feb-08 21:27N 01°16' E 103°54'0 0.0
2015-Feb-08 20:33N 01°16' E 103°54'0 0.0
2015-Feb-08 19:27N 01°16' E 103°54'0 0.0
2015-Feb-08 18:33N 01°16' E 103°54'0 0.0
2015-Feb-08 17:33N 01°16' E 103°54'0 0.0
2015-Feb-08 16:33N 01°16' E 103°54'0 0.0
2015-Feb-08 15:27N 01°16' E 103°54'0 0.0
2015-Feb-08 14:27N 01°16' E 103°54'0 0.0
2015-Feb-08 13:09N 01°16' E 103°54'0 0.0
2015-Feb-08 12:09N 01°16' E 103°54'0 0.1
2015-Feb-08 11:33N 01°16' E 103°55'0 0.0
2015-Feb-08 10:15N 01°16' E 103°54'0 0.0
2015-Feb-08 09:21N 01°16' E 103°54'3 3.5
2015-Feb-08 08:30N 01°13' E 103°53'3 3.0
2015-Feb-08 07:33N 01°15' E 103°55'1111.2
2015-Feb-08 06:33N 01°18' E 104°06'10 8.6
2015-Feb-08 05:23N 01°23' E 103°58'  
Track history (hours):
 
Tides and Currents Weather Stations Pressure Air Temp Water Temp Dewpoint Dewpoint Depression Visibility Wind Speed Wind Dir Waves Ship Positions

High Priority

Last reported at 2015-Feb-09 18:30 UTC. Time now 2015-Mar-31 22:03 UTC.
Position N 01°10' E 103°47'.
Warning: this ship's position is 50 days out of date.

Length 180 m; draft 7 m.

Type: Tanker. MMSI: 636013591.

Date/timePositionNaut miles runAvg speedWind from/ knotsBaromVisibWave heightAir tempDewpointWater temp
2015-Feb-09 18:30N 01°10' E 103°47'4 1.6
2015-Feb-09 16:15N 01°13' E 103°49'0 0.1
2015-Feb-09 15:33N 01°13' E 103°49'7 7.0
2015-Feb-09 14:32N 01°16' E 103°56'1 0.1
2015-Feb-09 05:30N 01°16' E 103°54'0 0.0
2015-Feb-09 04:21N 01°16' E 103°54'0 0.0
2015-Feb-09 03:33N 01°16' E 103°54'0 0.0
2015-Feb-09 02:33N 01°16' E 103°54'0 0.0
2015-Feb-09 01:33N 01°16' E 103°54'0 0.0
2015-Feb-09 00:18N 01°16' E 103°54'0 0.0
2015-Feb-08 23:21N 01°16' E 103°54'0 0.0
2015-Feb-08 22:21N 01°16' E 103°54'0 0.0
2015-Feb-08 21:27N 01°16' E 103°54'0 0.0
2015-Feb-08 20:33N 01°16' E 103°54'0 0.0
2015-Feb-08 19:27N 01°16' E 103°54'0 0.0
2015-Feb-08 18:33N 01°16' E 103°54'0 0.0
2015-Feb-08 17:33N 01°16' E 103°54'0 0.0
2015-Feb-08 16:33N 01°16' E 103°54'0 0.0
2015-Feb-08 15:27N 01°16' E 103°54'0 0.0
2015-Feb-08 14:27N 01°16' E 103°54'0 0.0
2015-Feb-08 13:09N 01°16' E 103°54'0 0.0
2015-Feb-08 12:09N 01°16' E 103°54'0 0.1
2015-Feb-08 11:33N 01°16' E 103°55'0 0.0
2015-Feb-08 10:15N 01°16' E 103°54'0 0.0
2015-Feb-08 09:21N 01°16' E 103°54'3 3.5
2015-Feb-08 08:30N 01°13' E 103°53'3 3.0
2015-Feb-08 07:33N 01°15' E 103°55'1111.2
2015-Feb-08 06:33N 01°18' E 104°06'10 8.6
2015-Feb-08 05:23N 01°23' E 103°58'  

Dump ship's entire track history